Terminal Aerodrome Forecast
Issued by NWS Portland, ME

Home | Current Version | Previous Version | Text Only | Print | Product List | Glossary On
Versions: 1 2 3 4 5 6 7 8 9 10 11 12 13
000
FTUS41 KGYX 171120
TAFPWM
TAF
KPWM 171120Z 1712/1812 VRB03KT P6SM SCT250
     FM171700 08007KT P6SM SCT080 OVC250
     FM180100 06006KT 2SM -SN BR OVC020
     FM180500 05010KT 1 1/2SM -SN BR OVC012=

USA.gov is the U.S. government's official web portal to all federal, state and local government web resources and services.